Time;durP1;ratioP1;P1;durP2;ratioP2;P2;SDS_P1;SDS_P2;PMS_P1;PMS_P2;Temp;Humidity;BMP_temperature;BMP_pressure;BME280_temperature;BME280_humidity;BME280_pressure;Samples;Min_cycle;Max_cycle;Signal;HPM_P1;HPM_P2
2022/01/20 00:03:32;;;;;;;23.02;3.22;;;4.40;99.90;;;;;;4957414;28;20047;-73
2022/01/20 00:28:03;;;;;;;21.23;2.60;;;4.20;99.90;;;;;;4932331;29;20058;-74
2022/01/20 00:30:37;;;;;;;22.83;3.10;;;4.20;99.90;;;;;;4938758;28;20051;-74
2022/01/20 00:37:16;;;;;;;19.48;2.58;;;4.20;99.90;;;;;;4953220;29;20039;-74
2022/01/20 00:38:18;;;;;;;19.83;2.75;;;4.30;99.90;;;;;;4952920;28;20043;-74
2022/01/20 00:40:44;;;;;;;17.05;2.70;;;4.30;99.90;;;;;;4940238;28;20039;-74
2022/01/20 00:43:09;;;;;;;19.55;2.85;;;4.30;99.90;;;;;;4938760;29;20039;-74
2022/01/20 00:45:35;;;;;;;19.30;2.53;;;4.20;99.90;;;;;;4936747;28;20054;-74
2022/01/20 00:48:01;;;;;;;21.77;2.70;;;4.30;99.90;;;;;;4934760;29;20118;-74
2022/01/20 00:50:26;;;;;;;20.30;2.67;;;4.10;99.90;;;;;;4934794;29;20379;-74
2022/01/20 00:52:52;;;;;;;20.58;2.97;;;4.10;99.90;;;;;;4938560;29;20043;-74
2022/01/20 00:55:18;;;;;;;16.90;2.75;;;4.00;99.90;;;;;;4938706;29;20413;-74
2022/01/20 00:57:44;;;;;;;21.30;2.00;;;3.90;99.90;;;;;;4938758;29;20197;-74
2022/01/20 01:00:14;;;;;;;19.63;2.90;;;3.80;99.90;;;;;;4935214;29;20047;-74
2022/01/20 01:02:40;;;;;;;14.65;2.35;;;3.80;99.90;;;;;;4935380;29;20043;-74
2022/01/20 01:05:08;;;;;;;21.10;2.30;;;3.70;99.90;;;;;;4938035;29;20047;-74
2022/01/20 01:09:59;;;;;;;21.17;2.55;;;3.70;99.90;;;;;;4939417;29;20130;-74
2022/01/20 01:12:37;;;;;;;24.90;4.55;;;3.70;99.90;;;;;;4954043;28;20066;-74
2022/01/20 01:15:07;;;;;;;19.40;2.80;;;3.80;99.90;;;;;;4939041;29;20046;-73
2022/01/20 01:20:20;;;;;;;17.65;2.42;;;3.80;99.90;;;;;;4938291;28;20047;-73
2022/01/20 01:22:45;;;;;;;13.90;2.38;;;3.90;99.90;;;;;;4934536;29;20050;-74
2022/01/20 01:25:11;;;;;;;13.15;2.17;;;3.80;99.90;;;;;;4918782;28;20054;-73
2022/01/20 01:27:40;;;;;;;14.68;2.63;;;3.90;99.90;;;;;;4938141;29;20122;-73
2022/01/20 01:30:22;;;;;;;17.42;2.58;;;3.90;99.90;;;;;;4951460;28;20047;-73
2022/01/20 01:32:51;;;;;;;18.83;2.58;;;4.00;99.90;;;;;;4938116;29;20040;-74
2022/01/20 01:35:19;;;;;;;17.23;2.35;;;4.00;99.90;;;;;;4952289;28;20437;-73
2022/01/20 01:40:22;;;;;;;11.20;1.90;;;4.00;99.90;;;;;;4938251;29;20043;-73
2022/01/20 01:42:50;;;;;;;13.40;2.05;;;3.90;99.90;;;;;;4935505;29;20054;-73
2022/01/20 01:45:19;;;;;;;24.60;2.85;;;3.90;99.90;;;;;;4943105;28;20493;-73
2022/01/20 01:47:46;;;;;;;23.30;2.53;;;3.90;99.90;;;;;;4938884;29;20151;-74
2022/01/20 01:50:12;;;;;;;17.55;2.47;;;3.90;99.90;;;;;;4937787;28;20414;-73
2022/01/20 01:52:38;;;;;;;15.65;1.80;;;4.00;99.90;;;;;;4942845;28;20133;-74
2022/01/20 01:55:05;;;;;;;12.07;1.95;;;4.10;99.90;;;;;;4941659;29;20449;-74
2022/01/20 01:57:30;;;;;;;13.23;1.73;;;4.10;99.90;;;;;;4936198;29;20047;-73
2022/01/20 01:59:57;;;;;;;19.00;2.10;;;4.20;99.90;;;;;;4940285;29;20045;-73
2022/01/20 02:02:23;;;;;;;16.55;1.70;;;4.20;99.90;;;;;;4944610;28;20489;-73
2022/01/20 02:04:50;;;;;;;11.48;1.65;;;4.30;99.90;;;;;;4938858;29;20490;-73
2022/01/20 02:21:01;;;;;;;11.50;1.75;;;4.30;99.90;;;;;;4957553;28;20043;-74
2022/01/20 02:23:27;;;;;;;9.15;1.48;;;4.30;99.90;;;;;;4955275;29;20474;-73
2022/01/20 02:25:53;;;;;;;11.73;1.88;;;4.30;99.90;;;;;;4922707;28;20053;-73
2022/01/20 02:28:19;;;;;;;8.45;1.50;;;4.30;99.90;;;;;;4922192;29;20114;-74
2022/01/20 02:30:45;;;;;;;10.02;1.70;;;4.30;99.90;;;;;;4939855;29;20043;-74
2022/01/20 02:33:14;;;;;;;7.40;1.10;;;4.30;99.90;;;;;;4952590;29;20494;-73
2022/01/20 02:35:44;;;;;;;8.27;1.42;;;4.30;99.90;;;;;;4940498;28;20485;-73
2022/01/20 02:38:16;;;;;;;15.63;2.63;;;4.40;99.90;;;;;;4954444;28;20556;-73
2022/01/20 02:45:57;;;;;;;7.78;1.48;;;4.40;99.90;;;;;;4947029;28;20039;-73
2022/01/20 02:48:24;;;;;;;10.90;2.63;;;4.40;99.90;;;;;;4961244;28;20043;-73
2022/01/20 02:50:50;;;;;;;10.77;1.73;;;4.30;99.90;;;;;;4931462;29;20046;-73
2022/01/20 02:53:16;;;;;;;13.95;3.53;;;4.30;99.90;;;;;;4937018;29;20043;-73
2022/01/20 02:55:42;;;;;;;14.48;2.47;;;4.40;99.90;;;;;;4954151;29;20042;-73
2022/01/20 02:58:08;;;;;;;9.50;1.30;;;4.50;99.90;;;;;;4935566;29;20039;-73
2022/01/20 03:00:35;;;;;;;9.50;1.90;;;4.50;99.90;;;;;;4936454;29;20461;-73
2022/01/20 03:03:01;;;;;;;9.93;1.65;;;4.50;99.90;;;;;;4937240;29;20059;-74
2022/01/20 03:05:31;;;;;;;16.95;2.25;;;4.40;99.90;;;;;;4939406;28;20043;-74
2022/01/20 03:07:57;;;;;;;15.82;2.10;;;4.50;99.90;;;;;;4930152;28;20094;-74
2022/01/20 03:10:23;;;;;;;17.60;2.28;;;4.50;99.90;;;;;;4936249;28;20093;-74
2022/01/20 03:12:50;;;;;;;16.42;2.13;;;4.50;99.90;;;;;;4937086;29;20490;-74
2022/01/20 03:15:16;;;;;;;12.55;2.13;;;4.50;99.90;;;;;;4934332;28;20493;-73
2022/01/20 03:17:42;;;;;;;14.18;2.50;;;4.50;99.90;;;;;;4935836;29;20050;-73
2022/01/20 03:20:08;;;;;;;15.45;1.85;;;4.50;99.90;;;;;;4935867;28;20050;-73
2022/01/20 03:22:33;;;;;;;12.60;2.55;;;4.40;99.90;;;;;;4936201;29;20039;-73
2022/01/20 03:24:59;;;;;;;16.98;2.05;;;4.40;99.90;;;;;;4931620;29;20110;-73
2022/01/20 03:27:25;;;;;;;15.88;2.42;;;4.30;99.90;;;;;;4937670;29;20089;-73
2022/01/20 03:29:51;;;;;;;14.90;2.47;;;4.40;99.90;;;;;;4941311;29;20057;-73
2022/01/20 03:32:16;;;;;;;15.48;2.33;;;4.40;99.90;;;;;;4952693;28;20039;-73
2022/01/20 03:34:42;;;;;;;17.60;2.40;;;4.30;99.90;;;;;;4941854;28;20031;-74
2022/01/20 03:37:08;;;;;;;19.85;2.88;;;4.30;99.90;;;;;;4955821;28;20078;-74
2022/01/20 03:39:34;;;;;;;19.30;4.13;;;4.20;99.90;;;;;;4956094;28;20129;-73
2022/01/20 03:42:00;;;;;;;15.85;2.38;;;4.20;99.90;;;;;;4931455;28;20510;-74
2022/01/20 03:44:26;;;;;;;20.90;2.63;;;4.20;99.90;;;;;;4941677;29;20117;-73
2022/01/20 03:46:52;;;;;;;20.15;3.05;;;4.20;99.90;;;;;;4944050;29;20084;-73
2022/01/20 03:49:38;;;;;;;22.55;3.47;;;4.20;99.90;;;;;;4954554;29;20043;-73
2022/01/20 03:52:05;;;;;;;22.80;3.30;;;4.20;99.90;;;;;;4970418;28;20043;-73
2022/01/20 03:54:31;;;;;;;26.85;3.53;;;4.20;99.90;;;;;;4940612;29;20525;-73
2022/01/20 03:56:56;;;;;;;27.90;3.58;;;4.20;99.90;;;;;;4956611;29;20178;-73
2022/01/20 03:59:22;;;;;;;25.75;3.90;;;4.20;99.90;;;;;;4957145;28;20050;-73
2022/01/20 04:01:48;;;;;;;31.02;4.63;;;4.20;99.90;;;;;;4957464;28;20046;-73
2022/01/20 04:04:13;;;;;;;26.42;4.20;;;4.30;99.90;;;;;;4956856;28;20058;-73
2022/01/20 04:06:39;;;;;;;25.15;3.90;;;4.30;99.90;;;;;;4940118;29;20162;-74
2022/01/20 04:09:05;;;;;;;26.83;4.32;;;4.30;99.90;;;;;;4960157;28;20070;-73
2022/01/20 04:11:31;;;;;;;27.95;4.22;;;4.30;99.90;;;;;;4955412;29;20039;-73
2022/01/20 04:13:57;;;;;;;27.33;4.85;;;4.20;99.90;;;;;;4955268;29;20046;-73
2022/01/20 04:16:50;;;;;;;27.55;4.30;;;4.30;99.90;;;;;;4956786;28;20047;-73
2022/01/20 04:19:15;;;;;;;26.90;4.72;;;4.30;99.90;;;;;;4948494;29;20050;-74
2022/01/20 04:21:42;;;;;;;24.38;3.88;;;4.30;99.90;;;;;;4940496;29;20043;-74
2022/01/20 04:24:09;;;;;;;25.48;4.50;;;4.40;99.90;;;;;;4940714;28;20520;-74
2022/01/20 04:26:36;;;;;;;24.58;4.68;;;4.30;99.90;;;;;;4957255;28;20114;-73
2022/01/20 04:29:03;;;;;;;25.60;4.15;;;4.20;99.90;;;;;;4939013;29;20532;-73
2022/01/20 04:31:31;;;;;;;24.55;3.72;;;4.20;99.90;;;;;;4936812;29;20643;-73
2022/01/20 04:33:57;;;;;;;21.80;3.53;;;4.20;99.90;;;;;;4943152;28;20047;-73
2022/01/20 04:36:30;;;;;;;20.67;3.38;;;4.20;99.90;;;;;;4966975;28;20366;-73
2022/01/20 04:38:56;;;;;;;19.38;4.05;;;4.30;99.90;;;;;;4956531;29;20577;-73
2022/01/20 04:41:23;;;;;;;21.40;3.58;;;4.20;99.90;;;;;;4939705;29;20204;-73
2022/01/20 04:43:49;;;;;;;16.60;3.65;;;4.20;99.90;;;;;;4939649;28;20573;-73
2022/01/20 04:47:05;;;;;;;20.48;3.17;;;4.20;99.90;;;;;;4956261;28;20532;-73
2022/01/20 04:57:17;;;;;;;21.30;3.13;;;4.10;99.90;;;;;;4930348;29;20472;-73
2022/01/20 04:59:44;;;;;;;23.90;3.65;;;4.10;99.90;;;;;;4930075;29;20501;-73
2022/01/20 05:02:10;;;;;;;16.35;2.90;;;4.00;99.90;;;;;;4937347;28;20039;-73
2022/01/20 05:04:37;;;;;;;18.50;3.67;;;4.00;99.90;;;;;;4959668;28;20387;-73
2022/01/20 05:07:03;;;;;;;17.80;3.20;;;4.00;99.90;;;;;;4952239;28;20536;-73
2022/01/20 05:09:28;;;;;;;17.08;3.15;;;4.00;99.90;;;;;;4936742;28;20390;-73
2022/01/20 05:12:16;;;;;;;23.88;3.47;;;3.90;99.90;;;;;;4944128;29;20050;-73
2022/01/20 05:14:41;;;;;;;22.70;4.38;;;3.90;99.90;;;;;;4938137;29;20463;-73
2022/01/20 05:17:07;;;;;;;23.38;3.60;;;3.90;99.90;;;;;;4955160;28;20118;-73
2022/01/20 05:19:33;;;;;;;20.33;2.95;;;3.90;99.90;;;;;;4935548;29;20051;-73
2022/01/20 05:22:00;;;;;;;17.17;2.45;;;4.00;99.90;;;;;;4938653;29;20405;-73
2022/01/20 05:24:26;;;;;;;18.45;3.42;;;4.00;99.90;;;;;;4932473;29;20466;-73
2022/01/20 05:26:57;;;;;;;22.88;3.33;;;4.00;99.90;;;;;;4938177;29;20417;-73
2022/01/20 05:29:23;;;;;;;22.35;3.75;;;3.90;99.90;;;;;;4954796;28;20454;-74
2022/01/20 05:31:50;;;;;;;13.27;2.78;;;3.90;99.90;;;;;;4937813;29;20035;-73
2022/01/20 05:34:16;;;;;;;21.65;3.80;;;3.90;99.90;;;;;;4955646;28;20035;-73
2022/01/20 05:36:42;;;;;;;18.95;3.00;;;3.80;99.90;;;;;;4938515;28;20145;-73
2022/01/20 05:39:09;;;;;;;16.98;3.20;;;3.80;99.90;;;;;;4938482;29;20134;-73
2022/01/20 05:41:35;;;;;;;13.63;2.60;;;3.80;99.90;;;;;;4953559;28;20051;-73
2022/01/20 05:44:01;;;;;;;19.00;3.00;;;3.80;99.90;;;;;;4939119;29;20101;-73
2022/01/20 05:46:35;;;;;;;22.63;3.10;;;3.70;99.90;;;;;;4954527;28;20043;-73
2022/01/20 05:49:08;;;;;;;17.35;2.65;;;3.80;99.90;;;;;;4937191;29;20043;-73
2022/01/20 05:51:41;;;;;;;18.20;3.05;;;3.70;99.90;;;;;;4937812;29;20043;-73
2022/01/20 05:54:07;;;;;;;17.67;2.90;;;3.70;99.90;;;;;;4952820;29;20040;-73
2022/01/20 05:56:34;;;;;;;12.07;2.25;;;3.70;99.90;;;;;;4930725;29;20039;-73
2022/01/20 05:58:59;;;;;;;18.02;3.10;;;3.60;99.90;;;;;;4947650;28;20054;-73
2022/01/20 06:01:26;;;;;;;20.08;2.92;;;3.60;99.90;;;;;;4937319;28;20397;-73
2022/01/20 06:03:52;;;;;;;12.18;2.40;;;3.40;99.90;;;;;;4924550;29;20170;-73
2022/01/20 06:06:19;;;;;;;25.50;3.97;;;3.40;99.90;;;;;;4936781;28;20140;-73
2022/01/20 06:08:44;;;;;;;10.80;2.50;;;3.40;99.90;;;;;;4953440;28;20090;-73
2022/01/20 06:11:11;;;;;;;10.43;2.20;;;3.30;99.90;;;;;;4937684;28;20494;-73
2022/01/20 06:13:37;;;;;;;9.65;2.72;;;3.20;99.90;;;;;;4957555;28;20123;-73
2022/01/20 06:16:09;;;;;;;14.38;2.00;;;3.30;99.90;;;;;;4933948;28;20047;-73
2022/01/20 06:18:35;;;;;;;12.38;2.08;;;3.20;99.90;;;;;;4937152;29;20057;-73
2022/01/20 06:21:01;;;;;;;11.60;2.00;;;3.10;99.90;;;;;;4950244;28;20043;-73
2022/01/20 06:23:27;;;;;;;11.77;1.70;;;3.10;99.90;;;;;;4936519;29;20409;-73
2022/01/20 06:25:52;;;;;;;11.80;2.17;;;3.00;99.90;;;;;;4954136;29;20490;-73
2022/01/20 06:28:19;;;;;;;15.20;2.17;;;2.90;99.90;;;;;;4936107;29;20055;-73
2022/01/20 06:30:45;;;;;;;23.50;4.28;;;2.80;99.90;;;;;;4938719;28;20075;-73
2022/01/20 06:33:11;;;;;;;15.88;2.88;;;2.70;99.90;;;;;;4945140;28;20039;-73
2022/01/20 06:35:37;;;;;;;11.00;2.20;;;2.70;99.90;;;;;;4943354;29;20398;-73
2022/01/20 06:38:04;;;;;;;16.02;2.60;;;2.70;99.90;;;;;;4943118;29;20450;-73
2022/01/20 06:40:30;;;;;;;16.13;3.28;;;2.60;99.90;;;;;;4954668;28;20457;-72
2022/01/20 06:42:57;;;;;;;18.90;4.30;;;2.60;99.90;;;;;;4936243;28;20046;-73
2022/01/20 06:45:23;;;;;;;19.95;8.63;;;2.60;99.90;;;;;;4922362;29;20070;-73
2022/01/20 06:47:50;;;;;;;19.75;4.25;;;2.70;99.90;;;;;;4938443;28;20050;-73
2022/01/20 06:50:17;;;;;;;16.15;2.80;;;2.70;99.90;;;;;;4955444;28;20047;-73
2022/01/20 06:52:43;;;;;;;21.35;2.72;;;2.60;99.90;;;;;;4937799;29;20035;-74
2022/01/20 06:55:12;;;;;;;18.92;2.80;;;2.60;99.90;;;;;;4946117;29;20039;-74
2022/01/20 06:57:39;;;;;;;21.60;3.72;;;2.50;99.90;;;;;;4939117;29;20054;-74
2022/01/20 07:00:07;;;;;;;16.70;3.17;;;2.50;99.90;;;;;;4938463;29;20047;-73
2022/01/20 07:02:33;;;;;;;22.52;4.22;;;2.50;99.90;;;;;;4942112;29;20039;-73
2022/01/20 07:04:58;;;;;;;15.50;6.43;;;2.50;99.90;;;;;;4938546;29;20042;-74
2022/01/20 07:07:24;;;;;;;10.50;2.67;;;2.50;99.90;;;;;;4939969;29;20047;-73
2022/01/20 07:09:49;;;;;;;21.55;2.97;;;2.50;99.90;;;;;;4953312;29;20552;-72
2022/01/20 07:12:15;;;;;;;15.98;3.45;;;2.50;99.90;;;;;;4936438;29;20047;-72
2022/01/20 07:14:41;;;;;;;16.15;3.17;;;2.60;99.90;;;;;;4933104;28;20039;-73
2022/01/20 07:17:07;;;;;;;19.83;5.57;;;2.50;99.90;;;;;;4938341;29;20065;-74
2022/01/20 07:19:33;;;;;;;16.70;6.05;;;2.60;99.90;;;;;;4934854;28;20066;-73
2022/01/20 07:22:00;;;;;;;21.52;4.70;;;2.50;99.90;;;;;;4934202;29;20047;-72
2022/01/20 07:24:27;;;;;;;23.45;4.57;;;2.60;99.90;;;;;;4936149;29;20047;-73
2022/01/20 07:26:53;;;;;;;19.45;3.55;;;2.60;99.90;;;;;;4935627;29;20054;-73
2022/01/20 07:29:19;;;;;;;21.10;4.03;;;2.60;99.90;;;;;;4934104;29;20043;-72
2022/01/20 07:31:45;;;;;;;18.35;3.47;;;2.50;99.90;;;;;;4940911;29;20035;-73
2022/01/20 07:34:11;;;;;;;20.92;3.85;;;2.60;99.90;;;;;;4953396;28;20117;-73
2022/01/20 07:36:36;;;;;;;17.55;4.00;;;2.60;99.90;;;;;;4942183;28;20043;-72
2022/01/20 07:39:03;;;;;;;17.35;4.75;;;2.50;99.90;;;;;;4933425;29;20144;-72
2022/01/20 07:41:29;;;;;;;21.73;3.90;;;2.60;99.90;;;;;;4947118;28;20035;-72
2022/01/20 07:43:55;;;;;;;20.08;6.05;;;2.60;99.90;;;;;;4951797;28;20125;-72
2022/01/20 07:46:21;;;;;;;18.38;3.92;;;2.50;99.90;;;;;;4912529;28;20471;-73
2022/01/20 07:48:46;;;;;;;54.70;28.92;;;2.50;99.90;;;;;;4925464;28;20051;-72
2022/01/20 07:51:12;;;;;;;30.70;8.85;;;2.60;99.90;;;;;;4946898;28;20422;-72
2022/01/20 07:53:38;;;;;;;17.20;3.50;;;2.60;99.90;;;;;;4935292;29;20047;-72
2022/01/20 07:56:05;;;;;;;27.02;4.13;;;2.60;99.90;;;;;;4929214;28;20049;-73
2022/01/20 07:58:36;;;;;;;17.27;4.53;;;2.60;99.90;;;;;;4921881;29;20070;-73
2022/01/20 08:01:03;;;;;;;21.48;4.72;;;2.60;99.90;;;;;;4920265;29;20036;-73
2022/01/20 08:03:29;;;;;;;22.88;4.00;;;2.60;99.90;;;;;;4933226;28;20405;-73
2022/01/20 08:05:55;;;;;;;29.38;8.80;;;2.60;99.90;;;;;;4956910;28;20055;-72
2022/01/20 08:08:20;;;;;;;23.92;4.47;;;2.60;99.90;;;;;;4938882;28;20047;-73
2022/01/20 08:10:46;;;;;;;16.23;7.55;;;2.50;99.90;;;;;;4937838;29;20047;-73
2022/01/20 08:13:12;;;;;;;31.23;11.93;;;2.50;99.90;;;;;;4919336;28;20458;-73
2022/01/20 08:15:37;;;;;;;39.88;24.42;;;2.50;99.90;;;;;;4949512;29;20069;-73
2022/01/20 08:18:04;;;;;;;72.22;45.17;;;2.40;99.90;;;;;;4940385;28;20390;-74
2022/01/20 08:20:30;;;;;;;25.98;6.35;;;2.40;99.90;;;;;;4940129;29;20047;-74
2022/01/20 08:22:56;;;;;;;32.08;14.23;;;2.40;99.90;;;;;;4941513;29;20533;-74
2022/01/20 08:25:23;;;;;;;19.17;4.18;;;2.40;99.90;;;;;;4940471;29;20508;-73
2022/01/20 08:27:50;;;;;;;26.55;8.32;;;2.40;99.90;;;;;;4943263;29;20082;-73
2022/01/20 08:30:19;;;;;;;18.70;5.30;;;2.40;99.90;;;;;;4939492;28;20101;-73
2022/01/20 08:32:46;;;;;;;26.20;3.90;;;2.40;99.90;;;;;;4945264;29;20095;-73
2022/01/20 08:35:13;;;;;;;20.35;3.63;;;2.50;99.90;;;;;;4943611;28;20054;-73
2022/01/20 08:37:43;;;;;;;23.73;4.72;;;2.50;99.90;;;;;;4934762;29;20134;-73
2022/01/20 08:40:13;;;;;;;22.20;4.45;;;2.50;99.90;;;;;;4952726;28;20075;-74
2022/01/20 08:42:40;;;;;;;18.63;5.45;;;2.50;99.90;;;;;;4941956;29;20138;-73
2022/01/20 08:45:07;;;;;;;24.77;3.70;;;2.60;99.90;;;;;;4938488;28;20638;-74
2022/01/20 08:47:33;;;;;;;21.92;3.90;;;2.60;99.90;;;;;;4939269;29;20130;-73
2022/01/20 08:49:59;;;;;;;21.52;3.97;;;2.70;99.90;;;;;;4931717;29;20454;-72
2022/01/20 08:52:28;;;;;;;24.27;4.07;;;2.80;99.90;;;;;;4933215;29;20401;-73
2022/01/20 08:54:55;;;;;;;14.70;3.53;;;2.80;99.90;;;;;;4935319;28;20044;-72
2022/01/20 08:57:20;;;;;;;17.00;3.83;;;2.90;99.90;;;;;;4935178;29;20047;-73
2022/01/20 08:59:46;;;;;;;17.95;3.05;;;3.00;99.90;;;;;;4946086;28;20421;-73
2022/01/20 09:02:12;;;;;;;11.90;3.20;;;3.00;99.90;;;;;;4939381;29;20572;-73
2022/01/20 09:04:39;;;;;;;16.10;2.67;;;3.10;99.90;;;;;;4935356;29;20042;-73
2022/01/20 09:07:04;;;;;;;23.02;3.85;;;3.20;99.90;;;;;;4951861;28;20043;-74
2022/01/20 09:09:33;;;;;;;21.92;3.97;;;3.20;99.90;;;;;;4945933;29;20047;-73
2022/01/20 09:12:17;;;;;;;20.27;3.10;;;3.20;99.90;;;;;;4941376;28;20035;-73
2022/01/20 09:17:31;;;;;;;17.48;2.90;;;3.20;99.90;;;;;;4941715;28;20047;-73
2022/01/20 09:19:58;;;;;;;16.15;2.50;;;3.20;99.90;;;;;;4936588;29;20111;-73
2022/01/20 09:22:27;;;;;;;14.10;2.88;;;3.00;99.90;;;;;;4936932;29;20048;-73
2022/01/20 09:24:52;;;;;;;14.82;2.30;;;2.90;99.90;;;;;;4953605;28;20504;-72
2022/01/20 09:27:18;;;;;;;12.93;2.22;;;2.80;99.90;;;;;;4953133;28;20074;-72
2022/01/20 09:29:46;;;;;;;14.38;2.67;;;2.80;99.90;;;;;;4950490;28;20090;-72
2022/01/20 09:32:13;;;;;;;10.00;2.13;;;2.70;99.90;;;;;;4944245;28;20114;-72
2022/01/20 09:34:39;;;;;;;13.77;2.60;;;2.70;99.90;;;;;;4954871;28;20058;-72
2022/01/20 09:37:05;;;;;;;18.75;3.55;;;2.60;99.90;;;;;;4949615;28;20063;-72
2022/01/20 09:39:31;;;;;;;19.05;3.25;;;2.60;99.90;;;;;;4938210;29;20466;-73
2022/01/20 09:41:58;;;;;;;14.68;2.67;;;2.60;99.90;;;;;;4930631;29;20043;-73
2022/01/20 09:44:24;;;;;;;13.82;2.10;;;2.60;99.90;;;;;;4940508;29;20043;-73
2022/01/20 09:46:50;;;;;;;11.40;2.70;;;2.60;99.90;;;;;;4937585;29;20043;-73
2022/01/20 09:49:17;;;;;;;17.73;2.70;;;2.70;99.90;;;;;;4939444;29;20070;-72
2022/01/20 09:51:43;;;;;;;14.00;2.88;;;2.70;99.90;;;;;;4937100;28;20047;-73
2022/01/20 09:54:09;;;;;;;17.15;2.83;;;2.70;99.90;;;;;;4922492;28;20138;-73
2022/01/20 09:56:36;;;;;;;20.98;3.10;;;2.80;99.90;;;;;;4941127;29;20051;-72
2022/01/20 09:59:02;;;;;;;14.35;2.38;;;2.90;99.90;;;;;;4939960;29;20102;-72
2022/01/20 10:01:43;;;;;;;23.65;3.00;;;3.00;99.90;;;;;;4948697;28;20049;-73
2022/01/20 10:04:29;;;;;;;19.73;3.03;;;2.90;99.90;;;;;;4916469;28;20059;-72
2022/01/20 10:06:58;;;;;;;23.15;7.57;;;2.80;99.90;;;;;;4934068;29;20051;-72
2022/01/20 10:09:45;;;;;;;161.32;56.38;;;2.80;99.90;;;;;;4939158;29;20074;-72
2022/01/20 10:12:14;;;;;;;164.13;65.55;;;2.80;99.90;;;;;;4933804;28;20070;-72
2022/01/20 10:14:50;;;;;;;27.30;7.38;;;2.80;99.90;;;;;;4934548;29;20044;-72
2022/01/20 10:17:36;;;;;;;107.53;46.58;;;2.80;99.90;;;;;;4940709;29;20043;-72
2022/01/20 10:20:07;;;;;;;86.60;34.92;;;2.80;99.90;;;;;;4939447;29;20043;-72
2022/01/20 10:22:36;;;;;;;38.03;13.50;;;2.90;99.90;;;;;;4931039;29;20039;-72
2022/01/20 10:25:09;;;;;;;304.88;136.43;;;2.90;99.90;;;;;;4931421;28;20049;-72
2022/01/20 10:27:44;;;;;;;;;;;3.00;99.90;;;;;;4931305;29;20039;-71
2022/01/20 10:30:11;;;;;;;33.30;10.15;;;3.10;99.90;;;;;;4938842;28;19957;-72
2022/01/20 10:32:50;;;;;;;213.85;102.05;;;3.20;99.90;;;;;;4942280;28;20039;-72
2022/01/20 10:35:24;;;;;;;37.78;13.70;;;3.30;99.90;;;;;;4951345;28;20045;-73
2022/01/20 10:38:10;;;;;;;44.58;18.88;;;3.40;99.90;;;;;;4934297;29;20044;-73
2022/01/20 10:40:50;;;;;;;28.40;10.05;;;3.50;99.90;;;;;;4940056;29;20049;-73
2022/01/20 10:43:24;;;;;;;22.92;7.20;;;3.60;99.90;;;;;;4934350;28;20051;-73
2022/01/20 10:46:13;;;;;;;26.73;10.55;;;3.60;99.90;;;;;;4935053;29;20035;-73
2022/01/20 10:48:40;;;;;;;19.65;9.05;;;3.60;99.90;;;;;;4949164;28;20095;-73
2022/01/20 10:51:21;;;;;;;14.00;2.85;;;3.60;99.90;;;;;;4953596;28;20035;-73
2022/01/20 10:54:01;;;;;;;13.70;1.85;;;3.60;99.90;;;;;;4940031;29;20039;-73
2022/01/20 10:56:27;;;;;;;11.65;3.08;;;3.50;99.90;;;;;;4938066;29;20050;-73
2022/01/20 10:58:54;;;;;;;12.40;2.40;;;3.40;99.90;;;;;;4952168;28;20035;-72
2022/01/20 11:01:19;;;;;;;8.55;2.00;;;3.30;99.90;;;;;;4935298;28;20058;-73
2022/01/20 11:03:46;;;;;;;12.10;4.60;;;3.40;99.90;;;;;;4948745;28;20035;-72
2022/01/20 11:06:11;;;;;;;11.20;3.28;;;3.30;99.90;;;;;;4934956;29;20050;-74
2022/01/20 11:08:40;;;;;;;42.85;20.40;;;3.30;99.90;;;;;;4936033;28;20067;-73
2022/01/20 11:11:06;;;;;;;41.33;23.63;;;3.40;99.90;;;;;;4946215;28;20040;-74
2022/01/20 11:13:32;;;;;;;101.40;66.65;;;3.40;99.90;;;;;;4918328;29;20058;-74
2022/01/20 11:15:57;;;;;;;12.48;3.83;;;3.50;99.90;;;;;;4924484;28;20028;-74
2022/01/20 11:18:30;;;;;;;16.95;5.25;;;3.70;99.90;;;;;;4947707;28;20670;-73
2022/01/20 11:20:56;;;;;;;11.57;3.47;;;3.90;99.90;;;;;;4954876;28;20159;-73
2022/01/20 11:23:22;;;;;;;13.60;3.30;;;4.10;99.90;;;;;;4943322;28;20150;-73
2022/01/20 11:25:48;;;;;;;14.02;2.95;;;4.30;99.90;;;;;;4924411;28;20471;-73
2022/01/20 11:28:20;;;;;;;12.85;3.90;;;4.40;99.90;;;;;;4934619;28;20050;-73
2022/01/20 11:31:03;;;;;;;12.10;2.13;;;4.50;99.90;;;;;;4938343;28;20047;-74
2022/01/20 11:33:38;;;;;;;12.55;2.58;;;4.60;99.90;;;;;;4929610;29;20039;-74
2022/01/20 11:36:09;;;;;;;10.98;2.58;;;4.70;99.90;;;;;;4929529;28;20055;-74
2022/01/20 11:38:48;;;;;;;14.18;2.60;;;4.70;99.90;;;;;;4943406;28;20039;-75
2022/01/20 11:41:16;;;;;;;12.15;2.75;;;4.70;99.90;;;;;;4942145;28;20126;-73
2022/01/20 11:43:52;;;;;;;15.68;2.17;;;4.70;99.90;;;;;;4936982;29;20118;-74
2022/01/20 11:46:24;;;;;;;14.93;2.30;;;4.60;99.90;;;;;;4939911;28;20050;-75
2022/01/20 11:48:52;;;;;;;17.35;3.05;;;4.60;99.90;;;;;;4940230;29;20043;-73
2022/01/20 11:51:18;;;;;;;17.25;2.40;;;4.80;99.90;;;;;;4934325;28;20044;-74
2022/01/20 11:53:59;;;;;;;10.82;2.10;;;4.90;99.90;;;;;;4942884;28;20122;-74
2022/01/20 11:56:37;;;;;;;13.50;3.08;;;5.10;99.90;;;;;;4946844;28;20046;-75
2022/01/20 11:59:04;;;;;;;10.98;2.05;;;5.30;99.90;;;;;;4923238;28;20103;-73
2022/01/20 12:01:41;;;;;;;14.05;2.55;;;5.40;99.90;;;;;;4930615;28;20043;-73
2022/01/20 12:04:07;;;;;;;12.82;2.33;;;5.60;99.90;;;;;;4935212;29;20142;-72
2022/01/20 12:06:45;;;;;;;15.45;2.80;;;5.70;99.90;;;;;;4955629;29;20460;-75
2022/01/20 12:09:13;;;;;;;29.83;11.57;;;5.70;99.90;;;;;;4934876;29;20052;-74
2022/01/20 12:11:45;;;;;;;30.70;11.48;;;5.90;99.90;;;;;;4937764;29;20035;-74
2022/01/20 12:14:24;;;;;;;76.32;30.45;;;6.10;99.90;;;;;;4939833;28;20053;-74
2022/01/20 12:16:50;;;;;;;23.98;8.32;;;6.20;99.90;;;;;;4937794;29;20169;-74
2022/01/20 12:19:16;;;;;;;39.30;15.32;;;6.30;99.90;;;;;;4938428;29;20055;-73
2022/01/20 12:21:47;;;;;;;27.08;8.30;;;6.20;99.90;;;;;;4937602;29;20096;-74
2022/01/20 12:24:13;;;;;;;89.80;33.95;;;6.10;99.90;;;;;;4964306;28;20066;-81
2022/01/20 12:26:38;;;;;;;44.40;20.30;;;5.80;99.90;;;;;;4934619;29;20066;-73
2022/01/20 12:29:06;;;;;;;49.80;27.65;;;5.60;99.90;;;;;;4932605;28;20036;-73
2022/01/20 12:31:43;;;;;;;25.52;10.77;;;5.40;99.90;;;;;;4933715;28;20051;-73
2022/01/20 12:34:12;;;;;;;37.80;16.73;;;5.50;99.90;;;;;;4951673;28;20039;-74
2022/01/20 12:36:39;;;;;;;20.60;5.78;;;5.70;99.90;;;;;;4935965;28;20704;-73
2022/01/20 12:39:05;;;;;;;26.65;9.13;;;6.00;99.90;;;;;;4947682;28;20094;-73
2022/01/20 12:41:31;;;;;;;17.45;5.07;;;6.30;99.90;;;;;;4929745;28;20051;-74
2022/01/20 12:44:09;;;;;;;21.83;6.53;;;6.50;99.90;;;;;;4934245;28;20051;-74
2022/01/20 12:46:37;;;;;;;16.65;3.78;;;6.40;99.90;;;;;;4936285;28;20047;-74
2022/01/20 12:49:09;;;;;;;16.30;3.55;;;6.30;99.90;;;;;;4932988;28;20054;-74
2022/01/20 12:51:50;;;;;;;14.70;3.83;;;6.20;99.90;;;;;;4929624;28;20098;-73
2022/01/20 12:54:26;;;;;;;25.13;5.32;;;6.20;99.90;;;;;;4947625;28;20401;-73
2022/01/20 12:56:54;;;;;;;17.08;3.30;;;6.10;99.90;;;;;;4918853;28;20047;-73
2022/01/20 12:59:33;;;;;;;15.27;3.78;;;6.20;99.90;;;;;;4935870;29;20086;-74
2022/01/20 13:02:03;;;;;;;16.48;3.45;;;6.40;99.90;;;;;;4917889;28;20054;-73
2022/01/20 13:04:31;;;;;;;18.23;3.03;;;6.50;99.90;;;;;;4929875;28;20050;-73
2022/01/20 13:07:00;;;;;;;18.17;3.33;;;6.60;99.90;;;;;;4932544;28;20067;-74
2022/01/20 13:10:02;;;;;;;15.23;2.70;;;6.60;99.90;;;;;;4948727;28;20052;-74
2022/01/20 13:12:35;;;;;;;12.85;3.17;;;6.80;99.90;;;;;;4952900;28;20051;-73
2022/01/20 13:15:04;;;;;;;66.30;27.38;;;6.90;99.90;;;;;;4932878;28;20047;-72
2022/01/20 13:17:32;;;;;;;52.63;21.98;;;7.00;99.90;;;;;;4932593;28;20118;-73
2022/01/20 13:19:59;;;;;;;40.20;16.75;;;7.00;98.70;;;;;;4934593;28;20039;-73
2022/01/20 13:22:39;;;;;;;61.83;28.38;;;6.80;99.80;;;;;;4951792;29;20502;-73
2022/01/20 13:25:13;;;;;;;50.58;23.27;;;6.70;97.10;;;;;;4932768;28;20089;-73
2022/01/20 13:27:56;;;;;;;15.68;7.15;;;6.50;98.10;;;;;;4933413;28;20125;-73
2022/01/20 13:30:36;;;;;;;21.42;8.60;;;6.20;99.90;;;;;;4933846;28;20051;-73
2022/01/20 13:33:06;;;;;;;38.83;18.85;;;5.80;99.90;;;;;;4930918;28;20042;-73
2022/01/20 13:35:40;;;;;;;18.23;6.65;;;5.60;99.90;;;;;;4949931;28;20110;-73
2022/01/20 13:38:08;;;;;;;46.45;21.30;;;5.30;99.90;;;;;;4950209;28;20102;-73
2022/01/20 13:40:47;;;;;;;28.38;11.73;;;5.30;99.90;;;;;;4940155;28;20101;-73
2022/01/20 13:46:00;;;;;;;21.50;10.13;;;5.70;99.90;;;;;;4942056;29;20078;-72
2022/01/20 13:48:29;;;;;;;12.50;3.45;;;6.20;99.90;;;;;;4910775;29;20066;-73
2022/01/20 13:50:58;;;;;;;34.03;16.42;;;6.80;99.90;;;;;;4925866;29;20043;-73
2022/01/20 13:53:27;;;;;;;43.58;25.15;;;7.20;99.90;;;;;;4949836;28;20035;-73
2022/01/20 13:55:55;;;;;;;19.40;6.97;;;7.70;99.90;;;;;;4937539;28;20039;-73
2022/01/20 13:58:26;;;;;;;21.23;8.57;;;7.90;99.90;;;;;;4940519;29;20050;-73
2022/01/20 14:00:53;;;;;;;22.73;11.27;;;8.10;99.90;;;;;;4935543;28;20031;-73